Terminal Aerodrome Forecast
Issued by NWS

Home | Current Version | Previous Version | Text Only | Print | Product List | Glossary On
Versions: 1 2 3 4 5 6 7 8 9 10 11 12 13 14
000
FTUS44 KLZK 231500 AAB
TAFLIT
TAF AMD
KLIT 231512Z 2315/2412 22005KT P6SM FEW035 SCT060
     FM231600 28009KT P6SM VCTS SCT050CB
      TEMPO 2319/2323 4SM -TSRA SCT030CB
     FM240300 30005KT P6SM SCT150 SCT250=

USA.gov is the U.S. government's official web portal to all federal, state and local government web resources and services.